createdAt,value
2019-04-22T00:00:53.565Z,97471.88
2019-04-22T00:03:22.675Z,97470.67
2019-04-22T00:06:14.609Z,97470.88
2019-04-22T00:08:49.220Z,97461.58
2019-04-22T00:11:26.106Z,97460.48
2019-04-22T00:16:22.620Z,97460.83
2019-04-22T00:19:00.982Z,97458.45
2019-04-22T00:23:53.104Z,97454.70
2019-04-22T00:26:23.446Z,97449.20
2019-04-22T00:31:49.412Z,97449.06
2019-04-22T00:34:16.698Z,97442.52
2019-04-22T00:36:52.655Z,97445.14
2019-04-22T00:39:28.365Z,97439.90
2019-04-22T00:41:55.245Z,97438.22
2019-04-22T00:44:29.815Z,97433.59
2019-04-22T00:46:54.129Z,97424.05
2019-04-22T00:51:58.324Z,97422.58
2019-04-22T00:54:31.125Z,97425.34
2019-04-22T00:56:59.142Z,97424.70
2019-04-22T00:59:23.590Z,97429.44
2019-04-22T01:02:05.644Z,97423.34
2019-04-22T01:04:34.570Z,97418.44
2019-04-22T01:06:57.550Z,97420.42
2019-04-22T01:09:30.058Z,97422.91
2019-04-22T01:12:00.617Z,97418.84
2019-04-22T01:14:28.280Z,97418.58
2019-04-22T01:17:00.086Z,97415.69
2019-04-22T01:19:38.748Z,97412.84
2019-04-22T01:22:06.440Z,97405.45
2019-04-22T01:24:32.348Z,97407.70
2019-04-22T01:26:58.196Z,97404.05
2019-04-22T01:29:26.204Z,97401.53
2019-04-22T01:31:47.361Z,97402.94
2019-04-22T01:34:28.891Z,97402.23
2019-04-22T01:37:02.934Z,97391.97
2019-04-22T01:39:44.376Z,97391.70
2019-04-22T01:42:12.159Z,97394.08
2019-04-22T01:44:47.122Z,97394.75
2019-04-22T01:47:22.706Z,97397.59
2019-04-22T01:49:46.387Z,97393.16
2019-04-22T01:52:18.629Z,97390.98
2019-04-22T01:54:48.553Z,97389.41
2019-04-22T01:57:20.900Z,97389.73
2019-04-22T01:59:40.467Z,97387.78
2019-04-22T02:02:27.098Z,97383.62
2019-04-22T02:04:53.217Z,97378.59
2019-04-22T02:07:28.071Z,97381.06
2019-04-22T02:09:49.720Z,97376.63
2019-04-22T02:14:52.407Z,97373.33
2019-04-22T02:17:25.254Z,97368.80
2019-04-22T02:19:57.612Z,97367.95
2019-04-22T02:22:42.860Z,97364.10
2019-04-22T02:24:58.860Z,97359.10
2019-04-22T02:27:32.544Z,97359.71
2019-04-22T02:29:52.317Z,97354.48
2019-04-22T02:35:03.686Z,97351.70
2019-04-22T02:37:30.436Z,97348.25
2019-04-22T02:40:03.664Z,97341.34
2019-04-22T02:42:24.278Z,97341.87
2019-04-22T02:45:18.460Z,97343.88
2019-04-22T02:47:31.581Z,97339.22
2019-04-22T02:50:07.430Z,97340.75
2019-04-22T02:57:47.417Z,97332.97
2019-04-22T03:00:18.422Z,97326.26
2019-04-22T03:05:22.877Z,97331.34
2019-04-22T03:07:41.136Z,97323.36
2019-04-22T03:10:26.703Z,97321.67
2019-04-22T03:15:07.918Z,97316.03
2019-04-22T03:17:49.437Z,97314.11
2019-04-22T03:20:09.405Z,97317.76
2019-04-22T03:22:53.433Z,97309.65
2019-04-22T03:27:42.799Z,97302.59
2019-04-22T03:35:37.154Z,97295.92
2019-04-22T03:37:52.643Z,97296.86
2019-04-22T03:55:22.959Z,97278.01
2019-04-22T04:00:35.539Z,97276.99
2019-04-22T04:05:45.350Z,97273.39
2019-04-22T04:08:20.156Z,97278.84
2019-04-22T04:17:56.816Z,97270.63
2019-04-22T04:20:36.439Z,97269.05
2019-04-22T04:23:07.866Z,97270.11
2019-04-22T04:28:24.271Z,97266.66
2019-04-22T04:33:05.303Z,97273.42
2019-04-22T04:35:40.522Z,97273.70
2019-04-22T04:48:14.482Z,97261.81
2019-04-22T04:50:55.243Z,97266.34
2019-04-22T04:53:12.867Z,97264.81
2019-04-22T04:55:35.155Z,97261.45
2019-04-22T04:58:25.047Z,97259.35
2019-04-22T05:03:21.348Z,97258.04
2019-04-22T05:05:52.225Z,97260.23
2019-04-22T05:13:13.508Z,97254.33
2019-04-22T05:16:03.419Z,97252.22
2019-04-22T05:21:09.568Z,97252.13
2019-04-22T05:23:25.021Z,97245.52
2019-04-22T05:25:40.849Z,97254.02
2019-04-22T05:28:20.204Z,97246.44
2019-04-22T05:30:39.578Z,97245.66
2019-04-22T05:33:19.035Z,97246.20
2019-04-22T05:35:46.347Z,97246.98
2019-04-22T05:40:40.886Z,97245.87
2019-04-22T05:43:22.635Z,97244.00
2019-04-22T05:45:50.966Z,97240.46
2019-04-22T05:48:18.919Z,97248.48
2019-04-22T05:50:52.657Z,97245.29
2019-04-22T05:53:20.128Z,97242.78
2019-04-22T05:56:17.148Z,97243.86
2019-04-22T05:58:25.847Z,97244.24
2019-04-22T06:03:46.248Z,97243.72
2019-04-22T06:06:15.064Z,97240.54
2019-04-22T06:08:46.506Z,97243.88
2019-04-22T06:11:17.342Z,97228.73
2019-04-22T06:13:38.902Z,97222.33
2019-04-22T06:16:20.475Z,97218.94
2019-04-22T06:18:46.999Z,97214.64
2019-04-22T06:21:20.264Z,97217.53
2019-04-22T06:31:24.460Z,97222.11
2019-04-22T06:33:56.480Z,97213.09
2019-04-22T06:36:27.505Z,97217.20
2019-04-22T06:39:10.549Z,97215.57
2019-04-22T06:41:27.393Z,97218.66
2019-04-22T06:43:58.467Z,97214.88
2019-04-22T06:46:27.453Z,97216.56
2019-04-22T06:48:54.764Z,97218.52
2019-04-22T06:51:27.038Z,97217.95
2019-04-22T06:53:59.135Z,97213.19
2019-04-22T06:56:23.768Z,97209.19
2019-04-22T06:59:14.715Z,97201.57
2019-04-22T07:01:27.601Z,97201.86
2019-04-22T07:03:57.034Z,97206.69
2019-04-22T07:11:23.732Z,97201.25
2019-04-22T07:14:02.964Z,97198.13
2019-04-22T07:16:32.078Z,97199.09
2019-04-22T07:19:01.921Z,97196.00
2019-04-22T07:21:33.577Z,97192.98
2019-04-22T07:24:22.790Z,97186.39
2019-04-22T07:26:33.200Z,97186.43
2019-04-22T07:29:04.178Z,97182.11
2019-04-22T07:31:40.976Z,97182.13
2019-04-22T07:34:16.320Z,97181.20
2019-04-22T07:39:05.738Z,97172.66
2019-04-22T07:41:37.889Z,97170.44
2019-04-22T07:46:46.523Z,97163.42
2019-04-22T07:49:10.716Z,97154.44
2019-04-22T07:51:36.617Z,97155.30
2019-04-22T07:56:44.011Z,97152.50
2019-04-22T07:59:13.927Z,97154.75
2019-04-22T08:01:35.490Z,97156.05
2019-04-22T08:06:47.815Z,97148.53
2019-04-22T08:09:21.521Z,97143.34
2019-04-22T08:11:51.595Z,97150.13
2019-04-22T08:14:21.803Z,97146.41
2019-04-22T08:16:51.942Z,97140.69
2019-04-22T08:19:20.355Z,97134.09
2019-04-22T08:24:22.585Z,97143.80
2019-04-22T08:26:54.783Z,97124.97
2019-04-22T08:29:35.436Z,97131.70
2019-04-22T08:31:56.594Z,97133.89
2019-04-22T08:34:27.442Z,97121.57
2019-04-22T08:37:26.225Z,97116.61
2019-04-22T08:39:29.971Z,97115.08
2019-04-22T08:41:55.773Z,97117.05
2019-04-22T08:44:40.170Z,97123.38
2019-04-22T08:47:07.112Z,97116.16
2019-04-22T08:49:39.467Z,97106.33
2019-04-22T08:52:01.030Z,97113.48
2019-04-22T08:54:32.491Z,97103.22
2019-04-22T08:57:07.241Z,97099.11
2019-04-22T08:59:28.192Z,97092.33
2019-04-22T09:02:09.308Z,97093.48
2019-04-22T09:04:32.275Z,97081.83
2019-04-22T09:07:12.712Z,97087.39
2019-04-22T09:09:39.365Z,97085.34
2019-04-22T09:12:12.621Z,97083.17
2019-04-22T09:14:40.494Z,97076.67
2019-04-22T09:17:13.345Z,97069.05
2019-04-22T09:19:35.208Z,97067.41
2019-04-22T09:22:15.689Z,97067.62
2019-04-22T09:24:44.149Z,97062.36
2019-04-22T09:27:19.197Z,97052.05
2019-04-22T09:29:43.023Z,97050.92
2019-04-22T09:34:46.937Z,97044.84
2019-04-22T09:37:21.011Z,97044.86
2019-04-22T09:39:51.812Z,97041.18
2019-04-22T09:42:17.393Z,97043.80
2019-04-22T09:45:02.065Z,97038.13
2019-04-22T09:47:45.308Z,97040.61
2019-04-22T09:49:55.433Z,97029.58
2019-04-22T09:52:22.161Z,97029.36
2019-04-22T09:55:00.271Z,97020.27
2019-04-22T09:57:24.649Z,97021.67
2019-04-22T10:00:00.639Z,97012.04
2019-04-22T10:05:00.068Z,97006.02
2019-04-22T10:07:25.905Z,96995.58
2019-04-22T10:10:03.210Z,96989.09
2019-04-22T10:12:33.217Z,96987.98
2019-04-22T10:14:53.968Z,96979.98
2019-04-22T10:17:29.530Z,96982.22
2019-04-22T10:20:00.602Z,96972.42
2019-04-22T10:25:05.093Z,96968.70
2019-04-22T10:27:33.935Z,96956.28
2019-04-22T10:30:03.104Z,96952.22
2019-04-22T10:32:39.966Z,96950.29
2019-04-22T10:35:08.203Z,96939.53
2019-04-22T10:37:34.288Z,96936.78
2019-04-22T10:40:07.725Z,96935.00
2019-04-22T10:42:43.144Z,96937.95
2019-04-22T10:45:14.475Z,96926.33
2019-04-22T10:47:43.478Z,96928.02
2019-04-22T10:50:14.461Z,96919.73
2019-04-22T10:52:43.628Z,96913.83
2019-04-22T10:55:13.783Z,96909.16
2019-04-22T10:57:44.235Z,96900.89
2019-04-22T11:00:13.728Z,96904.30
2019-04-22T11:02:43.767Z,96899.35
2019-04-22T11:05:14.344Z,96901.94
2019-04-22T11:07:51.456Z,96903.79
2019-04-22T11:10:27.361Z,96894.95
2019-04-22T11:12:45.217Z,96892.95
2019-04-22T11:15:15.843Z,96897.80
2019-04-22T11:17:44.844Z,96893.29
2019-04-22T11:20:15.491Z,96879.64
2019-04-22T11:22:46.647Z,96885.38
2019-04-22T11:25:16.091Z,96886.19
2019-04-22T11:27:45.114Z,96880.52
2019-04-22T11:30:20.027Z,96875.63
2019-04-22T11:32:50.692Z,96867.36
2019-04-22T11:35:19.588Z,96871.55
2019-04-22T11:37:48.718Z,96868.30
2019-04-22T11:40:26.431Z,96861.33
2019-04-22T11:42:50.186Z,96854.06
2019-04-22T11:45:21.530Z,96859.33
2019-04-22T11:47:51.093Z,96842.56
2019-04-22T11:50:21.874Z,96850.34
2019-04-22T11:52:51.013Z,96851.80
2019-04-22T11:55:20.230Z,96843.59
2019-04-22T11:57:49.858Z,96837.00
2019-04-22T12:00:27.033Z,96844.57
2019-04-22T12:02:56.764Z,96837.72
2019-04-22T12:05:28.140Z,96837.15
2019-04-22T12:07:57.329Z,96838.70
2019-04-22T12:10:34.776Z,96836.98
2019-04-22T12:12:57.843Z,96822.81
2019-04-22T12:15:26.889Z,96821.47
2019-04-22T12:17:57.283Z,96819.15
2019-04-22T12:20:27.582Z,96814.19
2019-04-22T12:22:56.807Z,96806.98
2019-04-22T12:25:36.138Z,96803.58
2019-04-22T12:27:57.059Z,96807.20
2019-04-22T12:30:27.722Z,96798.09
2019-04-22T12:32:58.066Z,96792.34
2019-04-22T12:35:28.372Z,96789.72
2019-04-22T12:38:01.509Z,96788.26
2019-04-22T12:40:40.550Z,96793.20
2019-04-22T12:42:59.476Z,96787.69
2019-04-22T12:45:30.037Z,96780.77
2019-04-22T12:48:00.011Z,96773.97
2019-04-22T12:50:33.819Z,96767.42
2019-04-22T12:53:06.900Z,96764.38
2019-04-22T12:55:32.287Z,96761.91
2019-04-22T12:58:02.819Z,96756.94
2019-04-22T13:00:32.410Z,96751.23
2019-04-22T13:03:01.245Z,96746.66
2019-04-22T13:05:31.344Z,96741.80
2019-04-22T13:08:01.904Z,96732.07
2019-04-22T13:10:41.687Z,96732.03
2019-04-22T13:13:02.805Z,96722.14
2019-04-22T13:15:32.984Z,96722.86
2019-04-22T13:18:12.859Z,96718.41
2019-04-22T13:20:32.498Z,96715.90
2019-04-22T13:23:02.110Z,96715.52
2019-04-22T13:25:32.419Z,96711.05
2019-04-22T13:28:02.908Z,96706.06
2019-04-22T13:30:32.593Z,96698.45
2019-04-22T13:33:02.845Z,96699.57
2019-04-22T13:35:32.000Z,96690.17
2019-04-22T13:38:01.222Z,96687.48
2019-04-22T13:40:30.823Z,96686.47
2019-04-22T13:43:00.753Z,96680.72
2019-04-22T13:45:29.805Z,96676.54
2019-04-22T13:48:18.358Z,96673.17
2019-04-22T13:51:03.468Z,96670.81
2019-04-22T13:56:08.767Z,96668.06
2019-04-22T13:58:14.048Z,96663.50
2019-04-22T14:00:34.448Z,96672.82
2019-04-22T14:03:24.636Z,96660.47
2019-04-22T14:05:55.010Z,96656.81
2019-04-22T14:08:24.982Z,96655.24
2019-04-22T14:10:54.409Z,96647.11
2019-04-22T14:13:23.846Z,96643.91
2019-04-22T14:15:53.099Z,96644.48
2019-04-22T14:18:23.191Z,96642.63
2019-04-22T14:20:52.108Z,96640.61
2019-04-22T14:23:22.432Z,96634.80
2019-04-22T14:25:52.798Z,96629.22
2019-04-22T14:28:23.879Z,96632.87
2019-04-22T14:30:54.634Z,96632.78
2019-04-22T14:33:24.398Z,96629.86
2019-04-22T14:35:53.524Z,96626.52
2019-04-22T14:38:23.806Z,96618.67
2019-04-22T14:40:54.432Z,96614.34
2019-04-22T14:43:55.213Z,96609.75
2019-04-22T14:46:33.534Z,96610.78
2019-04-22T14:48:49.612Z,96603.33
2019-04-22T14:51:11.567Z,96594.41
2019-04-22T14:53:44.776Z,96598.03
2019-04-22T14:55:58.182Z,96601.70
2019-04-22T14:58:28.821Z,96590.36
2019-04-22T15:00:59.135Z,96590.66
2019-04-22T15:03:28.126Z,96584.43
2019-04-22T15:05:57.958Z,96587.50
2019-04-22T15:08:27.051Z,96583.45
2019-04-22T15:10:56.038Z,96578.14
2019-04-22T15:13:25.354Z,96583.33
2019-04-22T15:16:21.902Z,96582.34
2019-04-22T15:19:15.989Z,96581.61
2019-04-22T15:21:47.147Z,96582.02
2019-04-22T15:24:27.455Z,96584.91
2019-04-22T15:26:58.548Z,96580.28
2019-04-22T15:29:27.701Z,96573.73
2019-04-22T15:31:57.641Z,96558.69
2019-04-22T15:34:28.191Z,96567.12
2019-04-22T15:36:58.073Z,96559.72
2019-04-22T15:39:27.359Z,96559.59
2019-04-22T15:42:07.451Z,96557.11
2019-04-22T15:44:28.047Z,96558.38
2019-04-22T15:46:57.410Z,96553.50
2019-04-22T15:49:27.874Z,96557.45
2019-04-22T15:51:59.410Z,96550.07
2019-04-22T15:54:27.809Z,96551.93
2019-04-22T15:56:56.933Z,96546.14
2019-04-22T15:59:45.036Z,96542.89
2019-04-22T16:01:59.840Z,96540.03
2019-04-22T16:04:28.421Z,96541.16
2019-04-22T16:06:58.949Z,96546.41
2019-04-22T16:09:28.986Z,96541.27
2019-04-22T16:12:10.994Z,96536.13
2019-04-22T16:14:36.622Z,96539.12
2019-04-22T16:16:59.179Z,96532.03
2019-04-22T16:19:28.181Z,96535.00
2019-04-22T16:22:05.004Z,96536.33
2019-04-22T16:24:54.136Z,96535.60
2019-04-22T16:27:26.307Z,96526.04
2019-04-22T16:29:55.451Z,96523.64
2019-04-22T16:32:25.508Z,96526.11
2019-04-22T16:34:54.694Z,96523.64
2019-04-22T16:37:24.939Z,96520.66
2019-04-22T16:39:54.751Z,96517.28
2019-04-22T16:42:33.178Z,96514.81
2019-04-22T16:44:55.462Z,96517.53
2019-04-22T16:47:25.708Z,96515.38
2019-04-22T16:49:55.323Z,96510.78
2019-04-22T16:52:24.298Z,96508.80
2019-04-22T16:54:53.088Z,96510.80
2019-04-22T16:57:21.933Z,96506.26
2019-04-22T16:59:50.848Z,96504.92
2019-04-22T17:02:56.035Z,96507.74
2019-04-22T17:05:37.978Z,96514.77
2019-04-22T17:08:08.269Z,96511.20
2019-04-22T17:10:37.902Z,96510.16
2019-04-22T17:13:11.915Z,96503.33
2019-04-22T17:15:39.785Z,96505.76
2019-04-22T17:18:09.577Z,96512.45
2019-04-22T17:20:38.680Z,96512.55
2019-04-22T17:23:07.544Z,96508.14
2019-04-22T17:25:36.380Z,96515.23
2019-04-22T17:28:05.738Z,96519.09
2019-04-22T17:30:35.894Z,96514.55
2019-04-22T17:33:05.253Z,96521.36
2019-04-22T17:35:34.145Z,96519.39
2019-04-22T17:38:12.685Z,96518.00
2019-04-22T17:40:52.190Z,96522.75
2019-04-22T17:43:37.794Z,96525.61
2019-04-22T17:46:04.509Z,96525.47
2019-04-22T17:48:54.187Z,96525.13
2019-04-22T17:51:29.901Z,96533.59
2019-04-22T17:53:59.865Z,96532.20
2019-04-22T17:56:27.642Z,96527.95
2019-04-22T17:58:58.762Z,96532.69
2019-04-22T18:01:25.220Z,96532.44
2019-04-22T18:03:42.340Z,96529.96
2019-04-22T18:06:17.581Z,96523.05
2019-04-22T18:08:58.390Z,96526.06
2019-04-22T18:11:33.600Z,96530.84
2019-04-22T18:14:16.820Z,96528.94
2019-04-22T18:16:32.630Z,96541.23
2019-04-22T18:19:02.804Z,96530.35
2019-04-22T18:21:27.486Z,96538.46
2019-04-22T18:23:52.806Z,96537.66
2019-04-22T18:26:24.577Z,96535.72
2019-04-22T18:29:02.828Z,96537.83
2019-04-22T18:31:27.108Z,96536.91
2019-04-22T18:33:54.547Z,96546.27
2019-04-22T18:36:29.195Z,96535.39
2019-04-22T18:39:11.175Z,96547.38
2019-04-22T18:41:36.085Z,96552.73
2019-04-22T18:44:06.154Z,96551.47
2019-04-22T18:46:37.109Z,96554.06
2019-04-22T18:49:08.163Z,96560.21
2019-04-22T18:51:45.330Z,96549.61
2019-04-22T18:54:46.396Z,96549.00
2019-04-22T18:57:15.680Z,96558.21
2019-04-22T18:59:34.136Z,96553.25
2019-04-22T19:02:06.503Z,96558.16
2019-04-22T19:04:40.992Z,96562.17
2019-04-22T19:07:31.102Z,96567.48
2019-04-22T19:10:10.259Z,96567.07
2019-04-22T19:12:28.518Z,96567.11
2019-04-22T19:15:01.668Z,96570.13
2019-04-22T19:17:35.065Z,96570.16
2019-04-22T19:20:05.481Z,96568.38
2019-04-22T19:22:29.852Z,96574.20
2019-04-22T19:24:54.645Z,96572.41
2019-04-22T19:27:24.803Z,96565.33
2019-04-22T19:29:57.293Z,96568.67
2019-04-22T19:32:35.071Z,96569.52
2019-04-22T19:34:52.989Z,96566.22
2019-04-22T19:37:28.450Z,96567.57
2019-04-22T19:40:11.630Z,96564.59
2019-04-22T19:42:38.738Z,96565.61
2019-04-22T19:45:04.183Z,96568.58
2019-04-22T19:47:38.713Z,96566.27
2019-04-22T19:52:53.217Z,96565.94
2019-04-22T19:55:12.725Z,96568.47
2019-04-22T19:57:41.936Z,96568.11
2019-04-22T20:00:33.969Z,96566.34
2019-04-22T20:03:21.711Z,96566.50
2019-04-22T20:05:53.034Z,96564.70
2019-04-22T20:08:22.373Z,96569.99
2019-04-22T20:10:52.250Z,96569.02
2019-04-22T20:13:28.769Z,96567.05
2019-04-22T20:15:45.043Z,96566.88
2019-04-22T20:20:58.602Z,96564.73
2019-04-22T20:23:22.909Z,96567.56
2019-04-22T20:25:52.032Z,96566.23
2019-04-22T20:28:32.679Z,96557.36
2019-04-22T20:30:56.184Z,96555.87
2019-04-22T20:33:36.916Z,96554.53
2019-04-22T20:36:03.824Z,96551.59
2019-04-22T20:38:32.639Z,96542.34
2019-04-22T20:41:01.429Z,96549.92
2019-04-22T20:43:44.872Z,96548.79
2019-04-22T20:46:06.908Z,96549.94
2019-04-22T20:48:40.796Z,96547.77
2019-04-22T20:51:11.354Z,96546.64
2019-04-22T20:53:44.076Z,96546.80
2019-04-22T20:56:09.913Z,96543.65
2019-04-22T20:58:46.287Z,96546.59
2019-04-22T21:01:05.155Z,96548.22
2019-04-22T21:03:33.605Z,96548.69
2019-04-22T21:06:10.276Z,96536.63
2019-04-22T21:08:52.373Z,96539.09
2019-04-22T21:11:14.318Z,96536.91
2019-04-22T21:13:40.972Z,96530.77
2019-04-22T21:16:21.749Z,96533.22
2019-04-22T21:18:43.774Z,96529.89
2019-04-22T21:21:20.304Z,96526.88
2019-04-22T21:23:45.856Z,96525.52
2019-04-22T21:26:24.047Z,96519.06
2019-04-22T21:28:53.835Z,96516.76
2019-04-22T21:31:33.944Z,96512.27
2019-04-22T21:33:59.738Z,96510.13
2019-04-22T21:36:51.120Z,96506.64
2019-04-22T21:38:59.130Z,96501.30
2019-04-22T21:41:32.035Z,96497.61
2019-04-22T21:44:05.490Z,96497.91
2019-04-22T21:46:33.551Z,96492.98
2019-04-22T21:49:05.826Z,96491.16
2019-04-22T21:54:11.916Z,96479.05
2019-04-22T21:57:02.523Z,96476.42
2019-04-22T21:59:17.807Z,96476.22
2019-04-22T22:02:01.689Z,96476.55
2019-04-22T22:04:25.304Z,96468.94
2019-04-22T22:06:47.901Z,96473.36
2019-04-22T22:09:31.230Z,96471.70
2019-04-22T22:11:57.783Z,96473.16
2019-04-22T22:14:28.981Z,96468.37
2019-04-22T22:16:54.741Z,96460.47
2019-04-22T22:19:34.497Z,96458.16
2019-04-22T22:22:13.533Z,96455.83
2019-04-22T22:24:41.645Z,96444.64
2019-04-22T22:27:04.948Z,96447.21
2019-04-22T22:30:05.614Z,96438.34
2019-04-22T22:32:11.784Z,96431.57
2019-04-22T22:34:36.142Z,96429.57
2019-04-22T22:37:00.273Z,96431.06
2019-04-22T22:39:27.559Z,96420.98
2019-04-22T22:41:47.935Z,96419.16
2019-04-22T22:44:25.124Z,96420.33
2019-04-22T22:47:03.564Z,96413.90
2019-04-22T22:49:44.125Z,96409.27
2019-04-22T22:52:41.345Z,96407.45
2019-04-22T22:54:39.039Z,96403.65
2019-04-22T22:57:19.515Z,96396.73
2019-04-22T22:59:55.742Z,96398.39
2019-04-22T23:02:08.123Z,96390.16
2019-04-22T23:04:45.919Z,96385.17
2019-04-22T23:07:17.921Z,96388.63
2019-04-22T23:09:43.792Z,96386.19
2019-04-22T23:12:22.581Z,96387.84
2019-04-22T23:14:45.009Z,96385.22
2019-04-22T23:17:01.872Z,96384.52
2019-04-22T23:19:26.083Z,96383.98
2019-04-22T23:22:01.587Z,96380.37
2019-04-22T23:24:54.457Z,96378.91
2019-04-22T23:27:29.311Z,96374.63
2019-04-22T23:30:04.200Z,96372.34
2019-04-22T23:32:35.797Z,96368.69
2019-04-22T23:35:16.786Z,96370.81
2019-04-22T23:37:50.011Z,96360.78
2019-04-22T23:43:17.231Z,96358.47
2019-04-22T23:45:26.788Z,96354.19
2019-04-22T23:47:46.057Z,96352.67
2019-04-22T23:50:27.879Z,96355.43
2019-04-22T23:52:58.976Z,96345.26
2019-04-22T23:55:35.419Z,96339.85
2019-04-22T23:58:03.579Z,96329.48
